Time;durP1;ratioP1;P1;durP2;ratioP2;P2;SDS_P1;SDS_P2;PMS_P1;PMS_P2;Temp;Humidity;BMP_temperature;BMP_pressure;BME280_temperature;BME280_humidity;BME280_pressure;Samples;Min_cycle;Max_cycle;Signal;HPM_P1;HPM_P2
2021/06/15 00:01:13;;;;;;;23.73;11.18;;;;;;;17.98;83.32;101615.88;6283090;28;20056;-78
2021/06/15 00:04:16;;;;;;;24.80;12.20;;;;;;;18.09;83.20;101613.34;6281800;28;20048;-78
2021/06/15 00:07:17;;;;;;;21.00;10.70;;;;;;;17.85;84.55;101617.72;6281757;28;20053;-78
2021/06/15 00:10:21;;;;;;;21.00;10.70;;;;;;;17.79;85.14;101623.47;6281495;28;20091;-78
2021/06/15 00:13:22;;;;;;;17.27;10.60;;;;;;;17.75;86.97;101613.03;6282260;28;20424;-77
2021/06/15 00:16:23;;;;;;;23.10;12.15;;;;;;;17.78;86.88;101613.78;6280885;28;20139;-78
2021/06/15 00:19:26;;;;;;;24.35;12.90;;;;;;;17.72;86.48;101625.69;6281828;28;20045;-78
2021/06/15 00:22:28;;;;;;;23.88;12.35;;;;;;;17.65;88.03;101622.56;6281280;28;20064;-78
2021/06/15 00:25:29;;;;;;;23.27;12.27;;;;;;;17.74;88.21;101624.63;6281742;28;20049;-78
2021/06/15 00:28:30;;;;;;;20.17;11.20;;;;;;;17.71;87.66;101629.28;6282516;28;20057;-78
2021/06/15 00:31:34;;;;;;;19.02;9.70;;;;;;;17.75;87.53;101631.66;6286274;28;20401;-78
2021/06/15 00:34:37;;;;;;;20.52;10.73;;;;;;;17.60;87.66;101632.69;6286136;28;20049;-79
2021/06/15 00:37:38;;;;;;;26.27;11.35;;;;;;;17.67;87.36;101623.34;6284751;28;20052;-78
2021/06/15 00:40:40;;;;;;;19.95;9.82;;;;;;;17.43;89.42;101630.31;6284731;28;20048;-78
2021/06/15 00:43:41;;;;;;;25.15;11.82;;;;;;;17.39;90.30;101629.66;6284798;28;20052;-78
2021/06/15 00:46:42;;;;;;;22.33;12.98;;;;;;;17.22;92.89;101629.97;6285897;28;20060;-78
2021/06/15 00:49:45;;;;;;;23.83;12.00;;;;;;;17.32;92.35;101638.19;6284570;28;20060;-78
2021/06/15 00:52:47;;;;;;;27.05;13.20;;;;;;;17.18;94.03;101641.75;6284654;28;20045;-78
2021/06/15 00:55:50;;;;;;;27.50;13.60;;;;;;;17.16;93.49;101643.66;6283747;28;20427;-78
2021/06/15 00:58:51;;;;;;;30.50;14.65;;;;;;;17.21;94.53;101650.38;6285583;28;20049;-78
2021/06/15 01:01:53;;;;;;;26.35;14.07;;;;;;;17.21;93.83;101642.41;6283639;28;20057;-77
2021/06/15 01:04:59;;;;;;;25.63;14.48;;;;;;;17.00;95.15;101643.84;6283218;28;20045;-78
2021/06/15 01:08:07;;;;;;;29.83;15.52;;;;;;;16.89;97.10;101649.81;6283942;28;20049;-77
2021/06/15 01:11:20;;;;;;;26.67;15.70;;;;;;;17.09;95.44;101642.38;6283724;28;20049;-78
2021/06/15 01:14:33;;;;;;;25.38;14.68;;;;;;;16.90;96.99;101653.38;6282029;28;20069;-78
2021/06/15 01:17:39;;;;;;;25.95;14.88;;;;;;;17.02;96.01;101647.22;6283713;28;20049;-78
2021/06/15 01:20:47;;;;;;;26.48;16.27;;;;;;;16.87;96.82;101657.06;6283538;28;20053;-78
2021/06/15 01:24:20;;;;;;;34.47;16.15;;;;;;;16.83;97.74;101658.22;6282811;28;20408;-77
2021/06/15 01:27:41;;;;;;;32.63;15.55;;;;;;;16.75;98.24;101649.88;6281672;28;20045;-77
2021/06/15 01:31:00;;;;;;;27.17;15.65;;;;;;;16.66;98.40;101656.59;6282175;28;20053;-78
2021/06/15 01:34:04;;;;;;;32.97;17.48;;;;;;;16.60;99.24;101664.13;6282125;28;20052;-78
2021/06/15 01:37:09;;;;;;;32.05;15.98;;;;;;;16.62;99.92;101663.09;6281057;28;20053;-78
2021/06/15 01:40:14;;;;;;;32.60;16.13;;;;;;;16.73;98.97;101662.41;6281852;28;20060;-78
2021/06/15 01:43:24;;;;;;;36.08;16.85;;;;;;;16.66;98.75;101661.91;6281531;28;20053;-78
2021/06/15 01:46:29;;;;;;;28.38;16.55;;;;;;;16.70;99.34;101665.22;6281984;28;20060;-77
2021/06/15 01:49:39;;;;;;;38.70;17.05;;;;;;;16.57;99.23;101680.22;6281618;28;20053;-78
2021/06/15 01:52:42;;;;;;;37.78;17.00;;;;;;;16.54;99.36;101670.69;6282235;28;20495;-78
2021/06/15 01:55:48;;;;;;;35.22;17.90;;;;;;;16.63;99.29;101672.75;6281738;28;20078;-78
2021/06/15 01:58:52;;;;;;;33.30;15.20;;;;;;;16.69;98.64;101664.38;6280889;28;20048;-78
2021/06/15 02:01:57;;;;;;;32.60;17.10;;;;;;;16.55;99.62;101664.41;6280935;28;20145;-78
2021/06/15 02:04:58;;;;;;;26.00;14.85;;;;;;;16.57;98.50;101657.19;6280657;28;20091;-78
2021/06/15 02:08:04;;;;;;;36.95;15.43;;;;;;;16.41;99.13;101665.28;6279666;28;20060;-78
2021/06/15 02:11:06;;;;;;;31.73;14.65;;;;;;;16.45;99.20;101671.25;6281200;28;20060;-78
2021/06/15 02:14:17;;;;;;;26.40;14.20;;;;;;;16.32;100.00;101662.38;6280789;28;20052;-78
2021/06/15 02:17:19;;;;;;;32.90;13.95;;;;;;;16.33;99.12;101675.53;6280326;28;20052;-78
2021/06/15 02:20:24;;;;;;;31.40;14.77;;;;;;;16.31;100.00;101677.44;6281704;28;20049;-77
2021/06/15 02:23:27;;;;;;;30.15;13.80;;;;;;;16.47;98.49;101685.28;6280262;28;20434;-78
2021/06/15 02:26:31;;;;;;;28.55;12.85;;;;;;;16.37;99.28;101682.34;6281115;28;20056;-78
2021/06/15 02:29:34;;;;;;;29.15;13.55;;;;;;;16.37;98.85;101692.09;6279756;28;20518;-78
2021/06/15 02:32:36;;;;;;;25.75;12.75;;;;;;;16.30;99.66;101696.94;6279585;28;20052;-77
2021/06/15 02:35:42;;;;;;;33.17;13.98;;;;;;;16.15;100.00;101688.13;6280892;28;20056;-78
2021/06/15 02:38:52;;;;;;;29.63;14.52;;;;;;;16.22;100.00;101685.97;6279596;28;20401;-77
2021/06/15 02:41:56;;;;;;;26.25;13.57;;;;;;;16.41;99.40;101696.28;6279505;28;20055;-77
2021/06/15 02:45:00;;;;;;;26.50;12.30;;;;;;;16.18;100.00;101692.41;6279151;28;20142;-78
2021/06/15 02:48:06;;;;;;;33.53;14.40;;;;;;;16.07;100.00;101695.69;6280348;28;20049;-77
2021/06/15 02:51:09;;;;;;;31.98;16.20;;;;;;;16.00;100.00;101701.50;6278958;28;20049;-77
2021/06/15 02:54:18;;;;;;;33.45;16.88;;;;;;;16.04;100.00;101710.97;6278623;28;20412;-77
2021/06/15 02:57:21;;;;;;;30.90;17.90;;;;;;;15.95;100.00;101710.56;6279345;28;20049;-78
2021/06/15 03:00:24;;;;;;;39.03;20.17;;;;;;;15.84;100.00;101712.16;6278160;28;20075;-78
2021/06/15 03:03:25;;;;;;;34.55;18.50;;;;;;;15.90;100.00;101725.06;6277947;28;20056;-78
2021/06/15 03:06:26;;;;;;;37.95;20.38;;;;;;;15.82;100.00;101725.50;6274045;28;20056;-77
2021/06/15 03:09:28;;;;;;;41.90;22.02;;;;;;;15.88;100.00;101730.44;6274563;28;20045;-77
2021/06/15 03:12:34;;;;;;;40.63;21.42;;;;;;;15.74;100.00;101730.41;6274864;28;20044;-78
2021/06/15 03:15:43;;;;;;;36.80;22.58;;;;;;;15.76;100.00;101731.19;6274197;28;20052;-77
2021/06/15 03:18:52;;;;;;;45.47;24.02;;;;;;;15.56;100.00;101724.34;6274337;28;20057;-77
2021/06/15 03:22:00;;;;;;;41.60;23.70;;;;;;;15.61;100.00;101718.78;6275569;28;20052;-77
2021/06/15 03:25:04;;;;;;;46.92;22.58;;;;;;;15.60;100.00;101714.44;6274199;28;20079;-77
2021/06/15 03:28:10;;;;;;;43.72;23.45;;;;;;;15.64;100.00;101729.25;6273683;28;20052;-78
2021/06/15 03:31:14;;;;;;;40.58;23.02;;;;;;;15.67;100.00;101729.94;6274140;28;20045;-77
2021/06/15 03:34:21;;;;;;;35.97;20.52;;;;;;;15.66;100.00;101730.00;6269815;28;20521;-77
2021/06/15 03:37:24;;;;;;;36.53;20.42;;;;;;;15.78;100.00;101741.69;6273714;28;20040;-77
2021/06/15 03:40:26;;;;;;;35.42;18.00;;;;;;;15.68;100.00;101736.06;6275398;28;20049;-77
2021/06/15 03:43:30;;;;;;;35.92;17.10;;;;;;;15.72;100.00;101732.31;6277071;28;20416;-78
2021/06/15 03:46:35;;;;;;;49.45;18.35;;;;;;;15.84;100.00;101741.31;6276933;28;20045;-78
2021/06/15 03:49:37;;;;;;;29.30;15.98;;;;;;;15.79;100.00;101743.38;6276591;28;20071;-77
2021/06/15 03:52:40;;;;;;;31.85;15.68;;;;;;;15.65;100.00;101739.75;6277159;28;20044;-77
2021/06/15 03:55:42;;;;;;;32.85;14.55;;;;;;;15.68;100.00;101755.47;6274990;28;20164;-78
2021/06/15 03:58:45;;;;;;;29.83;13.65;;;;;;;15.81;100.00;101752.97;6276461;28;20057;-77
2021/06/15 04:01:51;;;;;;;31.48;15.00;;;;;;;15.78;100.00;101750.47;6276949;28;20538;-77
2021/06/15 04:04:54;;;;;;;27.00;14.35;;;;;;;15.64;100.00;101761.91;6279963;28;20381;-77
2021/06/15 04:07:57;;;;;;;24.83;13.55;;;;;;;15.76;100.00;101759.44;6280127;28;20045;-77
2021/06/15 04:10:59;;;;;;;24.98;14.23;;;;;;;15.62;100.00;101758.44;6279869;28;20045;-78
2021/06/15 04:14:02;;;;;;;27.98;14.23;;;;;;;15.64;100.00;101753.94;6280827;28;20053;-77
2021/06/15 04:17:07;;;;;;;34.60;14.32;;;;;;;15.65;100.00;101747.69;6280455;28;20048;-77
2021/06/15 04:20:10;;;;;;;32.53;15.52;;;;;;;15.59;100.00;101752.47;6279956;28;20056;-77
2021/06/15 04:23:18;;;;;;;33.33;16.00;;;;;;;15.53;100.00;101758.97;6280508;28;20045;-77
2021/06/15 04:26:20;;;;;;;34.92;16.02;;;;;;;15.45;100.00;101755.94;6278152;28;19928;-78
2021/06/15 04:29:22;;;;;;;31.20;16.23;;;;;;;15.52;100.00;101759.06;6279014;28;20049;-77
2021/06/15 04:32:32;;;;;;;33.60;13.93;;;;;;;15.48;100.00;101768.97;6278598;28;20049;-78
2021/06/15 04:35:38;;;;;;;35.33;14.30;;;;;;;15.48;100.00;101761.03;6278417;28;20515;-77
2021/06/15 04:38:44;;;;;;;26.30;12.55;;;;;;;15.55;100.00;101765.03;6278555;28;20504;-78
2021/06/15 04:42:00;;;;;;;32.13;13.30;;;;;;;15.56;100.00;101765.91;6279710;28;20053;-77
2021/06/15 04:45:02;;;;;;;28.27;12.02;;;;;;;15.72;100.00;101772.91;6279551;28;20135;-78
2021/06/15 04:48:08;;;;;;;30.52;10.45;;;;;;;15.88;99.55;101788.75;6278511;28;20056;-78
2021/06/15 04:51:10;;;;;;;29.13;11.02;;;;;;;15.60;100.00;101781.53;6276580;28;20053;-77
2021/06/15 04:54:13;;;;;;;25.85;9.43;;;;;;;15.68;99.56;101774.03;6276410;28;20053;-77
2021/06/15 04:57:19;;;;;;;18.30;8.65;;;;;;;15.60;100.00;101781.53;6276846;28;20068;-76
2021/06/15 05:00:22;;;;;;;15.90;7.40;;;;;;;15.56;100.00;101795.88;6277865;28;20048;-77
2021/06/15 05:03:25;;;;;;;21.83;7.80;;;;;;;15.58;100.00;101796.69;6276156;28;20179;-77
2021/06/15 05:06:27;;;;;;;23.42;7.45;;;;;;;15.65;99.24;101794.53;6276761;28;20056;-77
2021/06/15 05:09:30;;;;;;;18.80;6.32;;;;;;;15.75;98.75;101797.50;6276698;28;20060;-77
2021/06/15 05:12:35;;;;;;;19.45;6.65;;;;;;;15.65;98.64;101800.69;6276481;28;20053;-77
2021/06/15 05:15:41;;;;;;;23.05;7.40;;;;;;;15.59;99.23;101805.47;6276816;28;20048;-77
2021/06/15 05:18:44;;;;;;;22.33;6.93;;;;;;;15.51;99.74;101808.56;6277947;28;20049;-78
2021/06/15 05:21:52;;;;;;;20.52;6.10;;;;;;;15.53;99.08;101821.69;6277984;28;20064;-77
2021/06/15 05:24:55;;;;;;;22.85;5.55;;;;;;;15.49;99.79;101823.69;6276092;28;20056;-77
2021/06/15 05:27:57;;;;;;;19.67;5.68;;;;;;;15.49;100.00;101823.69;6274801;23;20045;-74
2021/06/15 05:30:58;;;;;;;19.77;5.05;;;;;;;15.59;98.06;101824.03;6238948;28;20041;-74
2021/06/15 05:34:01;;;;;;;17.02;4.13;;;;;;;15.64;96.78;101830.78;6223755;28;20053;-74
2021/06/15 05:37:03;;;;;;;20.85;4.03;;;;;;;15.62;95.03;101832.63;6247956;28;20440;-74
2021/06/15 05:40:05;;;;;;;19.13;3.65;;;;;;;15.48;97.95;101830.75;6238672;28;20054;-74
2021/06/15 05:43:07;;;;;;;22.98;3.67;;;;;;;15.50;96.70;101851.88;6224083;28;20057;-73
2021/06/15 05:46:08;;;;;;;23.65;3.55;;;;;;;15.65;95.53;101836.94;6224279;28;20050;-74
2021/06/15 05:49:11;;;;;;;26.35;4.57;;;;;;;15.60;95.73;101837.16;6224346;28;20053;-74
2021/06/15 05:52:13;;;;;;;20.52;4.32;;;;;;;15.44;95.05;101842.50;6224224;28;20050;-74
2021/06/15 05:55:15;;;;;;;23.05;3.22;;;;;;;15.58;95.46;101840.84;6223961;28;20049;-74
2021/06/15 05:58:16;;;;;;;26.08;3.55;;;;;;;15.57;93.89;101847.09;6223883;28;20524;-75
2021/06/15 06:01:17;;;;;;;15.82;3.08;;;;;;;15.52;95.38;101849.16;6224146;28;20054;-74
2021/06/15 06:04:22;;;;;;;16.52;2.35;;;;;;;15.60;92.45;101842.47;6223601;28;20413;-74
2021/06/15 06:10:45;;;;;;;20.60;2.80;;;;;;;15.52;93.34;101841.19;6223909;28;20062;-74
2021/06/15 06:13:49;;;;;;;16.75;3.10;;;;;;;15.49;94.46;101850.19;6223831;28;20054;-74
2021/06/15 06:16:50;;;;;;;19.85;3.92;;;;;;;15.73;92.94;101845.31;6223293;28;20057;-75
2021/06/15 06:19:53;;;;;;;19.80;3.78;;;;;;;15.55;93.66;101833.94;6223356;28;20045;-74
2021/06/15 06:22:57;;;;;;;19.10;2.55;;;;;;;15.45;93.82;101830.97;6221992;28;20054;-75
2021/06/15 06:25:58;;;;;;;14.93;3.55;;;;;;;15.64;93.96;101827.28;6220475;28;20057;-74
2021/06/15 06:29:00;;;;;;;18.13;2.67;;;;;;;15.59;93.79;101837.28;6221733;28;20046;-74
2021/06/15 06:32:04;;;;;;;20.08;2.38;;;;;;;15.62;94.68;101837.94;6221733;28;20060;-74
2021/06/15 06:35:07;;;;;;;31.23;3.95;;;;;;;15.86;92.92;101850.78;6222996;28;20136;-74
2021/06/15 06:38:09;;;;;;;14.27;2.58;;;;;;;15.95;93.66;101842.28;6223377;28;20053;-73
2021/06/15 06:41:10;;;;;;;13.73;2.70;;;;;;;15.92;92.85;101850.41;6222937;28;20057;-74
2021/06/15 06:44:13;;;;;;;16.13;2.97;;;;;;;16.00;94.03;101840.22;6219266;28;20046;-74
2021/06/15 06:47:14;;;;;;;18.05;3.08;;;;;;;16.15;92.05;101841.94;6222492;28;20405;-74
2021/06/15 06:50:17;;;;;;;15.77;2.75;;;;;;;16.05;93.12;101859.34;6222599;28;20057;-75
2021/06/15 06:53:18;;;;;;;19.75;3.80;;;;;;;16.12;92.12;101866.00;6222779;28;20527;-74
2021/06/15 06:56:20;;;;;;;19.35;3.38;;;;;;;16.06;92.29;101858.41;6222350;28;20053;-75
2021/06/15 06:59:21;;;;;;;18.92;2.75;;;;;;;16.24;92.00;101857.31;6222940;28;20568;-74
2021/06/15 07:02:22;;;;;;;18.73;3.58;;;;;;;16.21;90.48;101851.34;6222656;28;20054;-74
2021/06/15 07:05:25;;;;;;;14.02;2.75;;;;;;;16.15;92.85;101873.78;6222378;28;20046;-75
2021/06/15 07:08:27;;;;;;;18.95;2.97;;;;;;;16.26;91.64;101874.94;6222825;28;20049;-75
2021/06/15 07:11:28;;;;;;;20.88;2.92;;;;;;;16.25;92.62;101874.09;6222788;28;20594;-75
2021/06/15 07:14:29;;;;;;;14.93;2.50;;;;;;;16.33;89.77;101873.63;6222616;28;20050;-74
2021/06/15 07:17:31;;;;;;;15.60;3.05;;;;;;;16.41;91.81;101879.34;6222028;28;20046;-73
2021/06/15 07:20:34;;;;;;;15.85;2.60;;;;;;;16.38;89.80;101879.53;6222311;28;20057;-74
2021/06/15 07:23:36;;;;;;;15.70;2.40;;;;;;;16.29;90.47;101885.38;6222246;28;20054;-73
2021/06/15 07:26:37;;;;;;;23.90;3.05;;;;;;;16.35;89.02;101880.56;6221864;28;20046;-74
2021/06/15 07:29:38;;;;;;;16.90;2.65;;;;;;;16.25;90.23;101882.03;6222093;28;20176;-74
2021/06/15 07:32:40;;;;;;;28.67;3.05;;;;;;;16.43;88.21;101883.59;6222219;28;20513;-74
2021/06/15 07:35:42;;;;;;;13.45;3.45;;;;;;;16.46;88.24;101887.88;6221994;28;20494;-74
2021/06/15 07:38:44;;;;;;;13.70;2.47;;;;;;;16.46;89.08;101877.28;6229054;28;20058;-74
2021/06/15 07:41:46;;;;;;;14.95;2.47;;;;;;;16.55;86.87;101886.47;6230120;28;20586;-74
2021/06/15 07:44:47;;;;;;;13.80;2.30;;;;;;;16.57;89.28;101885.41;6229917;28;20516;-73
2021/06/15 07:47:48;;;;;;;14.40;2.47;;;;;;;16.85;84.02;101894.41;6230032;28;20050;-73
2021/06/15 07:50:51;;;;;;;13.30;2.42;;;;;;;16.65;84.78;101892.94;6229970;28;20046;-73
2021/06/15 07:53:55;;;;;;;13.30;2.60;;;;;;;16.64;85.36;101888.56;6230002;28;20061;-73
2021/06/15 07:56:57;;;;;;;21.10;2.92;;;;;;;16.76;83.66;101893.19;6229962;28;20456;-74
2021/06/15 07:59:58;;;;;;;15.13;2.85;;;;;;;16.69;86.16;101897.13;6229256;28;20058;-75
2021/06/15 08:02:59;;;;;;;12.50;2.35;;;;;;;16.72;84.89;101889.00;6228646;28;20060;-75
2021/06/15 08:06:04;;;;;;;15.00;3.33;;;;;;;16.96;84.70;101899.91;6228189;28;20042;-74
2021/06/15 08:09:05;;;;;;;12.27;2.33;;;;;;;16.96;81.91;101898.09;6229344;28;20046;-75
2021/06/15 08:12:07;;;;;;;17.00;2.33;;;;;;;16.94;84.07;101897.38;6229423;28;20414;-74
2021/06/15 08:15:09;;;;;;;13.00;1.77;;;;;;;17.11;80.50;101898.09;6229217;28;20046;-75
2021/06/15 08:18:11;;;;;;;10.27;2.25;;;;;;;17.28;75.15;101905.03;6229292;28;20055;-75
2021/06/15 08:21:14;;;;;;;16.45;2.10;;;;;;;17.08;78.15;101903.59;6229665;28;20050;-75
2021/06/15 08:24:16;;;;;;;10.20;2.00;;;;;;;17.20;79.38;101911.66;6229619;28;20156;-74
2021/06/15 08:27:17;;;;;;;7.10;1.88;;;;;;;16.91;75.86;101896.69;6228374;28;20050;-74
2021/06/15 08:30:20;;;;;;;16.83;1.98;;;;;;;16.88;75.93;101899.53;6229432;28;20069;-74
2021/06/15 08:33:21;;;;;;;14.32;2.20;;;;;;;16.87;77.36;101893.38;6229439;28;20057;-74
2021/06/15 08:36:25;;;;;;;11.07;1.83;;;;;;;16.89;77.34;101896.75;6228511;28;20050;-74
2021/06/15 08:39:26;;;;;;;10.27;2.17;;;;;;;17.20;75.07;101897.53;6229562;28;20050;-74
2021/06/15 08:42:28;;;;;;;12.07;1.75;;;;;;;17.25;70.66;101893.63;6229299;28;20057;-73
2021/06/15 08:45:30;;;;;;;6.60;1.55;;;;;;;17.27;74.55;101890.03;6229166;28;20482;-74
2021/06/15 08:48:34;;;;;;;11.55;1.67;;;;;;;17.45;72.76;101891.53;6226949;28;20057;-75
2021/06/15 08:51:37;;;;;;;12.45;1.85;;;;;;;17.34;73.69;101894.00;6225894;28;20075;-75
2021/06/15 08:54:40;;;;;;;7.57;1.95;;;;;;;17.41;75.18;101893.53;6225578;28;20054;-76
2021/06/15 08:57:43;;;;;;;15.07;2.28;;;;;;;17.47;73.58;101892.25;6224800;28;20054;-74
2021/06/15 09:00:44;;;;;;;9.90;1.80;;;;;;;17.47;72.38;101894.94;6225474;28;20053;-77
2021/06/15 09:03:51;;;;;;;9.30;1.52;;;;;;;17.48;72.66;101897.47;6225197;28;20057;-76
2021/06/15 09:06:56;;;;;;;8.73;1.75;;;;;;;17.53;71.39;101899.00;6225044;28;20048;-75
2021/06/15 09:09:57;;;;;;;11.52;1.77;;;;;;;17.42;73.87;101897.03;6224925;28;20054;-74
2021/06/15 09:12:59;;;;;;;10.05;1.60;;;;;;;17.52;71.03;101889.31;6225105;28;20524;-74
2021/06/15 09:16:00;;;;;;;13.13;2.47;;;;;;;17.55;72.04;101892.63;6224805;28;20050;-75
2021/06/15 09:19:14;;;;;;;12.88;1.75;;;;;;;17.53;75.43;101883.03;6225050;28;20046;-75
2021/06/15 09:22:29;;;;;;;7.53;1.45;;;;;;;17.79;73.36;101890.22;6225044;28;20391;-75
2021/06/15 09:25:32;;;;;;;9.50;1.58;;;;;;;17.88;70.33;101886.09;6222529;28;20050;-75
2021/06/15 09:28:33;;;;;;;9.80;1.50;;;;;;;17.84;72.79;101885.44;6222966;28;20058;-75
2021/06/15 09:31:52;;;;;;;8.00;2.20;;;;;;;17.98;69.77;101887.19;6223214;28;20053;-74
2021/06/15 09:34:56;;;;;;;19.08;1.52;;;;;;;18.02;72.09;101882.53;6213482;28;20097;-77
2021/06/15 09:38:00;;;;;;;7.75;2.15;;;;;;;18.12;71.62;101887.16;6224225;28;20409;-77
2021/06/15 09:41:01;;;;;;;8.02;1.85;;;;;;;18.30;70.03;101887.69;6224909;28;20050;-76
2021/06/15 09:44:14;;;;;;;9.98;1.80;;;;;;;18.42;67.57;101884.19;6223135;28;20063;-75
2021/06/15 09:47:16;;;;;;;8.98;2.00;;;;;;;18.44;70.72;101881.44;6221728;28;20089;-75
2021/06/15 09:50:21;;;;;;;11.38;1.67;;;;;;;18.75;65.59;101881.06;6223861;28;20046;-76
2021/06/15 09:53:26;;;;;;;10.35;2.15;;;;;;;18.58;67.37;101878.69;6223423;28;20042;-75
2021/06/15 09:56:27;;;;;;;7.72;1.60;;;;;;;18.83;64.72;101875.19;6224200;28;20057;-74
2021/06/15 09:59:29;;;;;;;9.45;1.90;;;;;;;18.48;67.77;101873.13;6224061;28;20053;-76
2021/06/15 10:02:30;;;;;;;12.55;2.33;;;;;;;18.47;68.42;101878.56;6224120;28;20053;-75
2021/06/15 10:05:33;;;;;;;6.80;1.45;;;;;;;18.45;66.42;101875.16;6223763;28;20054;-77
2021/06/15 10:08:44;;;;;;;12.95;1.83;;;;;;;18.44;66.60;101881.44;6222504;28;20045;-75
2021/06/15 10:11:46;;;;;;;11.27;1.73;;;;;;;18.59;66.46;101883.06;6223216;28;20058;-76
2021/06/15 10:14:47;;;;;;;6.78;1.30;;;;;;;18.53;65.31;101875.50;6224201;28;20493;-75
2021/06/15 10:17:49;;;;;;;15.35;1.80;;;;;;;18.72;64.98;101883.09;6223579;28;20129;-75
2021/06/15 10:20:51;;;;;;;10.57;1.63;;;;;;;18.60;65.82;101878.59;6223605;28;20132;-76
2021/06/15 10:23:54;;;;;;;10.07;1.45;;;;;;;18.56;65.48;101871.75;6223814;28;20068;-75
2021/06/15 10:26:56;;;;;;;8.00;1.52;;;;;;;18.80;64.85;101859.41;6222971;28;20057;-76
2021/06/15 10:29:58;;;;;;;7.45;1.55;;;;;;;19.05;63.69;101865.69;6219700;28;20059;-76
2021/06/15 10:33:04;;;;;;;11.07;1.73;;;;;;;19.12;63.08;101865.16;6223158;28;20053;-77
2021/06/15 10:36:06;;;;;;;9.05;1.52;;;;;;;19.08;62.23;101860.16;6221924;28;20054;-77
2021/06/15 10:39:11;;;;;;;4.60;1.40;;;;;;;19.00;61.60;101861.53;6210498;28;20068;-75
2021/06/15 10:42:15;;;;;;;8.20;1.55;;;;;;;19.15;64.17;101867.59;6208876;28;20058;-76
2021/06/15 10:45:27;;;;;;;9.30;1.60;;;;;;;19.33;63.55;101859.22;6202461;28;20052;-76
2021/06/15 10:48:40;;;;;;;10.77;1.38;;;;;;;19.32;60.86;101855.72;6199265;28;20057;-75
2021/06/15 10:51:54;;;;;;;5.82;1.42;;;;;;;19.33;61.41;101852.09;6198084;28;20047;-75
2021/06/15 10:54:57;;;;;;;5.18;1.55;;;;;;;19.48;60.69;101850.09;6210790;28;20045;-77
2021/06/15 10:57:58;;;;;;;10.43;1.85;;;;;;;19.63;60.36;101856.19;6222017;28;20042;-75
2021/06/15 11:01:14;;;;;;;11.02;1.90;;;;;;;19.60;61.95;101864.38;6220620;28;20061;-77
2021/06/15 11:04:16;;;;;;;12.23;2.00;;;;;;;19.83;58.59;101868.03;6221267;28;20129;-77
2021/06/15 11:07:25;;;;;;;10.32;1.80;;;;;;;19.76;60.58;101860.50;6222283;28;20386;-75
2021/06/15 11:10:45;;;;;;;7.82;2.13;;;;;;;19.91;59.99;101860.31;6241314;28;20202;-76
2021/06/15 11:13:48;;;;;;;10.98;1.70;;;;;;;19.85;58.15;101855.41;6222503;28;20497;-76
2021/06/15 11:16:51;;;;;;;7.90;1.67;;;;;;;19.87;57.78;101845.50;6222544;28;20045;-76
2021/06/15 11:20:07;;;;;;;7.07;1.35;;;;;;;20.15;56.52;101846.91;6222850;28;20056;-76
2021/06/15 11:23:17;;;;;;;6.07;1.50;;;;;;;20.51;60.75;101852.13;6222601;28;20417;-76
2021/06/15 11:26:20;;;;;;;8.00;1.88;;;;;;;20.73;58.81;101859.31;6248535;22;20049;-77
2021/06/15 11:29:31;;;;;;;4.15;1.33;;;;;;;20.86;54.99;101853.88;6226227;28;20076;-78
2021/06/15 11:32:36;;;;;;;8.98;1.25;;;;;;;21.01;55.33;101849.97;6223627;28;20470;-79
2021/06/15 11:35:40;;;;;;;10.60;1.23;;;;;;;21.34;56.39;101850.91;6224431;28;20128;-78
2021/06/15 11:38:42;;;;;;;8.25;1.40;;;;;;;21.84;55.77;101840.53;6224017;28;20056;-78
2021/06/15 11:42:23;;;;;;;8.27;1.50;;;;;;;22.20;52.56;101839.28;6223611;28;20410;-79
2021/06/15 11:45:33;;;;;;;6.00;1.13;;;;;;;22.53;48.44;101838.25;6222050;28;20081;-79
2021/06/15 11:48:35;;;;;;;11.55;1.80;;;;;;;22.60;49.61;101840.38;6232173;28;20052;-79
2021/06/15 11:51:37;;;;;;;5.43;1.10;;;;;;;22.62;48.61;101838.41;6228698;28;20060;-78
2021/06/15 11:54:38;;;;;;;4.50;1.20;;;;;;;22.77;47.32;101848.66;6230239;28;20050;-79
2021/06/15 11:57:41;;;;;;;7.95;1.30;;;;;;;22.77;48.56;101835.25;6229788;28;20425;-78
2021/06/15 12:00:44;;;;;;;6.90;1.40;;;;;;;23.09;46.21;101842.31;6229059;28;20046;-79
2021/06/15 12:03:46;;;;;;;6.18;1.17;;;;;;;23.12;46.76;101838.50;6225671;28;20042;-79
2021/06/15 12:06:48;;;;;;;9.57;1.50;;;;;;;23.42;46.37;101833.06;6227131;28;20417;-78
2021/06/15 12:10:02;;;;;;;11.10;1.48;;;;;;;23.54;48.28;101828.44;6243014;28;20056;-80
2021/06/15 12:13:08;;;;;;;6.38;1.55;;;;;;;24.00;46.25;101824.22;6253535;28;20416;-79
2021/06/15 12:16:12;;;;;;;4.97;1.20;;;;;;;24.04;46.46;101821.09;6250819;28;20516;-80
2021/06/15 12:19:13;;;;;;;4.82;1.48;;;;;;;24.24;45.50;101819.22;6250142;28;20054;-78
2021/06/15 12:22:15;;;;;;;13.27;1.65;;;;;;;24.14;44.14;101829.13;6254982;28;20413;-79
2021/06/15 12:25:18;;;;;;;13.30;1.48;;;;;;;23.82;45.06;101815.19;6258497;28;20056;-80
2021/06/15 12:28:23;;;;;;;9.10;1.83;;;;;;;23.83;45.68;101820.41;6254724;28;20045;-81
2021/06/15 12:31:26;;;;;;;5.80;1.08;;;;;;;23.98;44.88;101823.50;6230131;28;20053;-81
2021/06/15 12:34:28;;;;;;;5.32;1.13;;;;;;;23.88;44.88;101823.50;6227262;28;20053;-82
2021/06/15 12:37:40;;;;;;;11.20;1.50;;;;;;;23.75;47.44;101818.44;6226741;28;20049;-81
2021/06/15 12:40:43;;;;;;;7.43;1.27;;;;;;;23.96;46.34;101812.91;6233651;28;20054;-79
2021/06/15 12:43:46;;;;;;;10.88;1.50;;;;;;;24.51;42.36;101818.47;6236393;28;20054;-77
2021/06/15 12:46:48;;;;;;;6.18;1.52;;;;;;;24.36;42.43;101814.53;6236575;28;20429;-81
2021/06/15 12:49:50;;;;;;;7.60;1.40;;;;;;;23.96;42.24;101815.59;6237299;28;20053;-81
2021/06/15 12:52:51;;;;;;;9.93;1.85;;;;;;;23.69;45.25;101818.16;6235786;28;20058;-81
2021/06/15 12:55:53;;;;;;;9.43;1.67;;;;;;;24.10;44.06;101816.13;6235428;28;20046;-78
2021/06/15 12:58:57;;;;;;;12.43;2.15;;;;;;;24.27;43.58;101810.03;6235936;28;20520;-78
2021/06/15 13:01:58;;;;;;;11.48;1.88;;;;;;;24.61;45.10;101798.78;6237025;28;20061;-79
2021/06/15 13:05:03;;;;;;;9.15;1.73;;;;;;;24.38;44.05;101801.81;6235844;28;20057;-78
2021/06/15 13:08:04;;;;;;;8.00;1.58;;;;;;;24.84;42.04;101797.38;6235162;28;20046;-77
2021/06/15 13:11:11;;;;;;;8.52;2.17;;;;;;;24.90;42.78;101801.34;6260846;28;20057;-81
2021/06/15 13:14:23;;;;;;;11.05;2.15;;;;;;;24.84;42.45;101810.81;6262269;28;20054;-78
2021/06/15 13:17:25;;;;;;;7.70;1.52;;;;;;;24.51;42.04;101804.19;6248257;28;20482;-80
2021/06/15 13:20:28;;;;;;;12.07;2.17;;;;;;;24.51;44.28;101802.34;6232865;28;20057;-80
2021/06/15 13:23:30;;;;;;;6.28;1.70;;;;;;;24.70;43.99;101792.50;6233598;28;20390;-82
2021/06/15 13:26:31;;;;;;;8.05;1.45;;;;;;;25.17;41.32;101793.28;6227533;28;20053;-79
2021/06/15 13:29:34;;;;;;;10.60;2.17;;;;;;;24.84;44.18;101800.06;6234302;28;20501;-81
2021/06/15 13:32:35;;;;;;;8.65;1.73;;;;;;;24.50;43.51;101794.44;6235665;28;20057;-81
2021/06/15 13:35:42;;;;;;;8.15;1.98;;;;;;;24.69;40.82;101790.81;6235281;28;20050;-81
2021/06/15 13:38:43;;;;;;;10.95;2.25;;;;;;;24.65;41.30;101789.41;6232580;28;20053;-81
2021/06/15 13:41:55;;;;;;;11.00;1.27;;;;;;;24.82;43.20;101790.47;6230793;28;20049;-82
2021/06/15 13:45:11;;;;;;;7.97;1.67;;;;;;;24.43;43.08;101791.47;6225891;28;20046;-82
2021/06/15 13:48:14;;;;;;;12.95;1.88;;;;;;;24.12;45.16;101790.84;6225718;28;20045;-81
2021/06/15 13:51:16;;;;;;;7.20;1.63;;;;;;;24.42;44.66;101779.03;6229483;28;20061;-82
2021/06/15 13:54:18;;;;;;;7.45;1.55;;;;;;;24.57;42.49;101781.25;6228704;28;20425;-82
2021/06/15 13:57:19;;;;;;;8.32;1.65;;;;;;;24.47;43.85;101790.19;6226909;28;20046;-82
2021/06/15 14:00:22;;;;;;;7.80;1.80;;;;;;;24.55;41.79;101792.16;6225630;28;20054;-81
2021/06/15 14:03:23;;;;;;;9.90;1.98;;;;;;;24.38;42.56;101793.75;6225349;28;20433;-82
2021/06/15 14:06:25;;;;;;;10.18;1.60;;;;;;;24.19;44.69;101796.47;6224386;28;20054;-81